Airway Heights, WA (99001)

4:27 PM PST on February 12, 2016 (GMT -0800)
Craig Rd / White Rd | | Change Station
CLOSE
Current Station
Personal Weather Station
Location: Medical Lake, WA
Elevation: 2405 ft
Nearby Weather Stations

Elev 2405 ft 47.58 °N, 117.62 °W | Updated 3 seconds ago

Mostly Cloudy
Mostly Cloudy
49.6 °F
Feels Like 48 °F
N
4.0
Wind Variable Wind from SW
Gusts 4.9 mph

Today
High -- | Low -- °F
--% Chance of Precip.
Yesterday
High -- | Low -- °F
Precip. -- in
Pressure 30.12 in
Visibility 10.0 miles
Clouds Few 2000 ft
Scattered Clouds 5000 ft
Mostly Cloudy 7000 ft
Mostly Cloudy 20000 ft
Windchill 48 °F
Dew Point 42 °F
Humidity 76%
Rainfall 0.00 in
Snow Depth Not available.
7:01 AM 5:08 PM
Waxing Crescent, 25% visible
METAR KGEG 122353Z 00000KT 10SM FEW020 SCT050 BKN070 BKN200 10/04 A3009 RMK AO2 SLP199 60001 T01000044 10106 20050 56010
Pressure 30.12 in
Visibility 10.0 miles
Clouds Few 2000 ft
Scattered Clouds 5000 ft
Mostly Cloudy 7000 ft
Mostly Cloudy 20000 ft
Windchill 48 °F
Dew Point 42 °F
Humidity 76%
Rainfall 0.00 in
Snow Depth Not available.
7:01 AM 5:08 PM
Waxing Crescent, 25% visible
METAR KGEG 122353Z 00000KT 10SM FEW020 SCT050 BKN070 BKN200 10/04 A3009 RMK AO2 SLP199 60001 T01000044 10106 20050 56010

10-Day Weather Forecast

Almanac

Astronomy

Feb. 12, 2016 Rise Set
Actual Time
Civil Twilight
Nautical Twilight
Astronomical Twilight
Moon
Length of Visible Light
Length of Day
Tomorrow will be .
, % of the Moon is Illuminated

Today's Extremes

State Highs State Lows

Community

WunderPhotos

Upload Photos

1,892,439 photos uploaded!

WunderBlog® & News

Nearby

Air Quality

  Air Quality AQ Index Pollutant
Not available.

Snow Depth

Station Depth Elevation

Earthquake Activity

City Distance Mag. Time & Date
Minimum magnitude displayed is 2.5.

Coastal Water Temperatures

Place Temperature

Stations

Nearby Weather Stations

Station Location Temp. Windchill Dew Point Humidity Wind Precip. Elev Updated Type
                   

Watches & Warnings

There are currently no watches in effect.